Time;durP1;ratioP1;P1;durP2;ratioP2;P2;SDS_P1;SDS_P2;PMS_P1;PMS_P2;Temp;Humidity;BMP_temperature;BMP_pressure;BME280_temperature;BME280_humidity;BME280_pressure;Samples;Min_cycle;Max_cycle;Signal;HPM_P1;HPM_P2
2022/02/03 00:00:20;;;;;;;64.13;29.50;;;8.00;99.90;;;;;;5019135;28;20053;-69
2022/02/03 00:03:17;;;;;;;67.72;30.35;;;8.00;99.90;;;;;;5019311;28;20041;-69
2022/02/03 00:05:50;;;;;;;59.55;28.85;;;8.10;99.90;;;;;;5021764;28;20046;-69
2022/02/03 00:22:08;;;;;;;39.33;21.30;;;8.20;99.90;;;;;;5019894;28;20512;-68
2022/02/03 00:25:08;;;;;;;39.50;21.58;;;8.20;99.90;;;;;;5021058;28;20033;-68
2022/02/03 00:27:48;;;;;;;38.83;20.65;;;8.20;99.90;;;;;;5021508;28;20034;-68
2022/02/03 00:30:18;;;;;;;57.65;22.20;;;8.20;99.90;;;;;;5020239;28;20053;-68
2022/02/03 00:35:56;;;;;;;43.05;22.35;;;8.20;99.90;;;;;;5018922;28;20047;-68
2022/02/03 00:49:28;;;;;;;54.05;25.33;;;8.30;99.90;;;;;;5020345;28;20119;-68
2022/02/03 00:51:59;;;;;;;50.10;24.13;;;8.40;99.90;;;;;;5020147;28;20852;-68
2022/02/03 00:54:25;;;;;;;47.10;22.58;;;8.30;99.90;;;;;;5021761;28;20528;-68
2022/02/03 00:57:00;;;;;;;49.70;24.10;;;8.30;99.90;;;;;;5019900;28;20061;-68
2022/02/03 00:59:53;;;;;;;40.72;21.17;;;8.30;99.90;;;;;;5016136;28;20100;-68
2022/02/03 01:02:23;;;;;;;44.08;22.50;;;8.40;99.90;;;;;;5019020;28;20105;-68
2022/02/03 01:04:49;;;;;;;49.22;24.25;;;8.30;99.90;;;;;;5019228;28;20433;-68
2022/02/03 01:07:17;;;;;;;54.63;24.67;;;8.40;99.90;;;;;;5019043;28;20155;-68
2022/02/03 01:10:00;;;;;;;50.22;23.88;;;8.30;99.90;;;;;;5021533;28;20054;-68
2022/02/03 01:12:39;;;;;;;48.63;23.08;;;8.40;99.90;;;;;;5021308;28;20045;-68
2022/02/03 01:17:43;;;;;;;51.22;25.27;;;8.40;99.90;;;;;;5017341;28;20064;-68
2022/02/03 01:47:52;;;;;;;75.20;32.33;;;8.50;99.90;;;;;;5018013;28;20133;-68
2022/02/03 01:52:46;;;;;;;66.05;31.52;;;8.50;99.90;;;;;;5023983;28;20042;-68
2022/02/03 01:55:14;;;;;;;83.25;35.35;;;8.50;99.90;;;;;;5028404;28;20065;-68
2022/02/03 01:57:47;;;;;;;65.47;30.20;;;8.40;99.90;;;;;;5022585;28;20061;-68
2022/02/03 02:00:15;;;;;;;67.45;32.40;;;8.50;99.90;;;;;;5024619;28;20092;-68
2022/02/03 02:03:03;;;;;;;60.85;30.35;;;8.50;99.90;;;;;;5026432;28;20069;-68
2022/02/03 02:05:51;;;;;;;63.60;30.27;;;8.50;99.90;;;;;;5023526;28;20490;-68
2022/02/03 02:08:26;;;;;;;57.55;30.17;;;8.50;99.90;;;;;;5022387;28;20068;-68
2022/02/03 02:11:32;;;;;;;53.47;29.85;;;8.50;99.90;;;;;;5025682;28;20573;-68
2022/02/03 02:16:59;;;;;;;59.58;31.73;;;8.50;99.90;;;;;;5025335;28;20077;-68
2022/02/03 02:39:14;;;;;;;54.35;30.55;;;8.50;99.90;;;;;;5026430;28;20049;-68
2022/02/03 02:45:18;;;;;;;47.13;30.10;;;8.50;99.90;;;;;;5026736;28;20450;-68
2022/02/03 02:48:07;;;;;;;53.55;29.63;;;8.50;99.90;;;;;;5016696;28;20390;-68
2022/02/03 02:50:50;;;;;;;45.15;28.08;;;8.50;99.90;;;;;;5022340;28;20497;-68
2022/02/03 02:56:29;;;;;;;40.55;26.38;;;8.50;99.90;;;;;;5029075;28;20501;-68
2022/02/03 03:38:05;;;;;;;47.65;29.05;;;8.40;99.90;;;;;;5019035;28;20044;-68
2022/02/03 03:40:12;;;;;;;44.22;27.77;;;8.50;99.90;;;;;;5019972;28;20509;-68
2022/02/03 03:42:43;;;;;;;46.25;29.48;;;8.40;99.90;;;;;;5023200;28;20092;-68
2022/02/03 03:45:10;;;;;;;50.83;32.28;;;8.40;99.90;;;;;;5021668;28;20029;-68
2022/02/03 03:47:39;;;;;;;52.53;32.70;;;8.40;99.90;;;;;;5021096;28;20033;-68
2022/02/03 03:50:14;;;;;;;46.13;31.30;;;8.40;99.90;;;;;;5023378;28;20065;-68
2022/02/03 03:52:57;;;;;;;53.50;33.55;;;8.40;99.90;;;;;;5021373;28;20060;-68
2022/02/03 04:33:50;;;;;;;53.78;32.75;;;8.40;99.90;;;;;;5020775;28;20048;-68
2022/02/03 04:37:16;;;;;;;56.53;35.05;;;8.30;99.90;;;;;;5021184;28;20048;-68
2022/02/03 05:02:41;;;;;;;61.88;37.83;;;8.30;99.90;;;;;;5016034;28;20049;-68
2022/02/03 05:08:52;;;;;;;68.60;41.97;;;8.30;99.90;;;;;;5008960;28;20063;-68
2022/02/03 05:11:40;;;;;;;66.53;40.45;;;8.30;99.90;;;;;;5011713;28;20096;-68
2022/02/03 05:20:41;;;;;;;72.43;42.58;;;8.30;99.90;;;;;;5019889;28;20052;-69
2022/02/03 05:32:39;;;;;;;71.10;42.88;;;8.30;99.90;;;;;;5015800;28;20084;-69
2022/02/03 05:47:21;;;;;;;79.13;45.55;;;8.20;99.90;;;;;;5019778;28;20053;-69
2022/02/03 06:14:20;;;;;;;65.38;42.90;;;8.30;99.90;;;;;;5019333;28;20119;-69
2022/02/03 06:22:22;;;;;;;64.93;42.50;;;8.30;99.90;;;;;;5016701;28;20104;-69
2022/02/03 06:27:44;;;;;;;62.92;40.03;;;8.20;99.90;;;;;;5019327;28;20041;-69
2022/02/03 06:30:12;;;;;;;63.42;40.25;;;8.20;99.90;;;;;;5019169;28;20055;-69
2022/02/03 06:32:39;;;;;;;63.88;40.08;;;8.20;99.90;;;;;;5018763;28;20048;-69
2022/02/03 06:35:07;;;;;;;57.25;37.53;;;8.20;99.90;;;;;;5016445;28;20478;-69
2022/02/03 06:37:33;;;;;;;55.97;36.95;;;8.20;99.90;;;;;;5018824;28;20581;-69
2022/02/03 06:39:59;;;;;;;55.28;35.53;;;8.20;99.90;;;;;;5021845;28;20128;-69
2022/02/03 06:42:25;;;;;;;49.85;34.20;;;8.20;99.90;;;;;;5022066;28;20050;-69
2022/02/03 06:44:56;;;;;;;50.30;34.00;;;8.20;99.90;;;;;;5006760;28;20777;-69
2022/02/03 06:47:29;;;;;;;54.03;34.15;;;8.20;99.90;;;;;;5022968;28;20041;-69
2022/02/03 06:50:15;;;;;;;47.00;34.60;;;8.10;99.90;;;;;;5022928;28;20072;-69
2022/02/03 06:58:26;;;;;;;45.30;31.05;;;8.20;99.90;;;;;;5019488;28;20103;-69
2022/02/03 07:00:55;;;;;;;43.83;29.60;;;8.10;99.90;;;;;;5018062;28;20821;-69
2022/02/03 07:03:24;;;;;;;43.50;31.00;;;8.10;99.90;;;;;;5039918;28;20168;-69
2022/02/03 07:05:49;;;;;;;37.72;28.70;;;8.10;99.90;;;;;;5020816;28;20390;-69
2022/02/03 07:08:18;;;;;;;39.72;27.17;;;8.10;99.90;;;;;;5018642;28;20092;-69
2022/02/03 07:10:44;;;;;;;33.08;25.10;;;8.10;99.90;;;;;;5022782;28;20060;-69
2022/02/03 07:13:11;;;;;;;39.13;26.55;;;8.10;99.90;;;;;;5021165;28;20103;-69
2022/02/03 07:15:37;;;;;;;37.05;26.15;;;8.10;99.90;;;;;;5020291;28;20119;-69
2022/02/03 07:18:03;;;;;;;37.35;25.38;;;8.10;99.90;;;;;;5022303;28;20038;-69
2022/02/03 07:20:30;;;;;;;42.80;24.58;;;8.10;99.90;;;;;;5024767;28;20046;-69
2022/02/03 07:22:56;;;;;;;43.28;25.95;;;8.10;99.90;;;;;;5022219;28;20398;-69
2022/02/03 07:25:22;;;;;;;37.38;25.38;;;8.00;99.90;;;;;;5016233;28;20075;-69
2022/02/03 07:27:47;;;;;;;37.75;24.08;;;8.00;99.90;;;;;;5022783;28;20034;-69
2022/02/03 07:30:14;;;;;;;38.30;24.00;;;8.00;99.90;;;;;;5020641;28;20110;-69
2022/02/03 07:32:40;;;;;;;32.55;24.58;;;8.00;99.90;;;;;;5023787;28;20379;-69
2022/02/03 07:35:08;;;;;;;35.50;23.33;;;8.00;99.90;;;;;;5019774;28;20103;-69
2022/02/03 07:37:42;;;;;;;32.08;22.60;;;8.10;99.90;;;;;;5024457;28;20037;-69
2022/02/03 07:40:08;;;;;;;29.88;21.63;;;8.00;99.90;;;;;;5021632;28;20096;-69
2022/02/03 07:42:34;;;;;;;32.10;21.02;;;8.10;99.90;;;;;;5022059;28;20374;-69
2022/02/03 07:44:59;;;;;;;31.58;21.15;;;8.10;99.90;;;;;;5021603;28;20038;-69
2022/02/03 07:47:25;;;;;;;31.85;20.38;;;8.10;99.90;;;;;;5023780;28;20123;-69
2022/02/03 07:49:51;;;;;;;32.38;20.73;;;8.10;99.90;;;;;;5018010;28;20052;-69
2022/02/03 07:52:17;;;;;;;25.67;20.67;;;8.00;99.90;;;;;;5020049;28;20034;-69
2022/02/03 07:54:42;;;;;;;26.50;20.45;;;8.00;99.90;;;;;;5020262;28;20048;-69
2022/02/03 07:57:08;;;;;;;28.80;19.60;;;7.90;99.90;;;;;;5021916;28;20456;-69
2022/02/03 07:59:35;;;;;;;26.85;18.08;;;8.00;99.90;;;;;;5022205;28;20046;-69
2022/02/03 08:02:01;;;;;;;27.70;18.85;;;8.10;99.90;;;;;;5020420;28;20563;-69
2022/02/03 08:04:30;;;;;;;25.73;18.58;;;8.00;99.90;;;;;;5020594;28;20049;-69
2022/02/03 08:06:56;;;;;;;27.70;17.88;;;8.00;99.90;;;;;;5017956;28;20121;-69
2022/02/03 08:09:27;;;;;;;22.25;16.40;;;8.00;99.90;;;;;;5021014;28;20471;-69
2022/02/03 08:11:54;;;;;;;22.52;15.98;;;8.00;99.90;;;;;;5019398;28;20137;-69
2022/02/03 08:14:29;;;;;;;18.95;14.65;;;8.10;99.90;;;;;;5022865;28;20045;-69
2022/02/03 08:17:08;;;;;;;21.42;15.40;;;8.00;99.90;;;;;;5016962;28;20140;-69
2022/02/03 08:19:48;;;;;;;24.08;14.05;;;8.10;99.90;;;;;;5018687;28;20383;-69
2022/02/03 08:22:19;;;;;;;19.88;14.13;;;8.00;99.90;;;;;;5017683;28;20037;-69
2022/02/03 08:24:50;;;;;;;22.92;13.95;;;8.10;99.90;;;;;;5025326;28;20556;-69
2022/02/03 08:27:52;;;;;;;21.23;12.68;;;8.10;99.90;;;;;;5014241;28;20050;-69
2022/02/03 08:30:21;;;;;;;18.63;12.68;;;8.10;99.90;;;;;;5026457;28;20048;-69
2022/02/03 08:32:50;;;;;;;19.60;12.15;;;8.10;99.90;;;;;;5020754;28;20060;-69
2022/02/03 08:43:15;;;;;;;20.60;12.20;;;8.10;99.90;;;;;;5018095;28;20053;-70
2022/02/03 08:45:42;;;;;;;19.25;12.48;;;8.00;99.90;;;;;;5019935;28;20065;-70
2022/02/03 08:48:11;;;;;;;21.67;12.43;;;8.10;99.90;;;;;;5014089;28;20045;-69
2022/02/03 08:50:38;;;;;;;19.20;12.00;;;8.00;99.90;;;;;;5019211;28;20042;-69
2022/02/03 08:53:13;;;;;;;17.75;11.93;;;8.00;99.90;;;;;;5019494;28;20500;-69
2022/02/03 08:55:51;;;;;;;20.02;12.48;;;8.00;99.90;;;;;;5014285;28;20097;-69
2022/02/03 09:52:28;;;;;;;21.38;15.65;;;8.10;99.90;;;;;;5018535;28;20128;-69
2022/02/03 09:57:44;;;;;;;21.90;17.07;;;8.10;99.90;;;;;;5024072;28;20049;-69
2022/02/03 10:00:29;;;;;;;22.27;15.23;;;8.00;99.90;;;;;;4992007;28;20125;-68
2022/02/03 10:03:01;;;;;;;20.20;14.95;;;8.00;99.90;;;;;;5018702;28;20045;-68
2022/02/03 10:05:34;;;;;;;23.77;15.77;;;8.00;99.90;;;;;;5014572;28;20466;-68
2022/02/03 10:08:00;;;;;;;22.20;15.45;;;8.00;99.90;;;;;;5021004;28;20048;-68
2022/02/03 10:10:28;;;;;;;21.42;15.40;;;8.00;99.90;;;;;;5012489;28;20041;-68
2022/02/03 10:12:54;;;;;;;22.95;15.43;;;8.00;99.90;;;;;;5025060;28;20041;-68
2022/02/03 10:15:21;;;;;;;18.85;15.30;;;8.10;99.90;;;;;;5025943;28;20142;-68
2022/02/03 10:17:49;;;;;;;21.23;16.23;;;8.00;99.90;;;;;;5019893;28;20103;-68
2022/02/03 10:20:21;;;;;;;21.20;15.23;;;8.00;99.90;;;;;;5022102;28;20060;-68
2022/02/03 10:22:51;;;;;;;16.13;13.68;;;8.00;99.90;;;;;;5007849;28;20140;-68
2022/02/03 10:25:23;;;;;;;17.90;14.32;;;8.00;99.90;;;;;;5024756;28;20076;-68
2022/02/03 10:28:00;;;;;;;17.08;14.35;;;8.10;99.90;;;;;;5023425;28;20030;-68
2022/02/03 10:30:33;;;;;;;19.05;13.55;;;8.00;99.90;;;;;;5019681;28;20050;-68
2022/02/03 10:32:59;;;;;;;22.25;14.68;;;8.00;99.90;;;;;;5027187;28;20128;-68
2022/02/03 10:35:39;;;;;;;21.05;15.05;;;8.10;99.90;;;;;;5025455;28;20034;-69
2022/02/03 10:41:52;;;;;;;18.98;13.88;;;8.10;99.90;;;;;;5024455;28;20401;-69
2022/02/03 10:44:38;;;;;;;16.63;13.02;;;8.10;99.90;;;;;;5021783;28;20045;-69
2022/02/03 10:47:40;;;;;;;19.42;13.50;;;8.00;99.90;;;;;;5018186;28;20401;-69
2022/02/03 10:50:42;;;;;;;19.38;13.63;;;8.00;99.90;;;;;;5023087;28;20159;-69
2022/02/03 10:58:48;;;;;;;17.70;14.63;;;8.10;99.90;;;;;;5020530;28;20049;-69
2022/02/03 11:04:32;;;;;;;19.73;14.23;;;8.10;99.90;;;;;;5019535;28;20056;-69
2022/02/03 11:07:07;;;;;;;17.85;14.63;;;8.10;99.90;;;;;;5021885;28;20342;-69
2022/02/03 11:09:54;;;;;;;21.20;15.27;;;8.10;99.90;;;;;;5022763;28;20100;-70
2022/02/03 11:12:23;;;;;;;19.90;15.40;;;8.10;99.90;;;;;;5017370;28;20053;-69
2022/02/03 11:14:49;;;;;;;18.73;15.07;;;8.10;99.90;;;;;;5020469;28;20132;-69
2022/02/03 11:17:17;;;;;;;19.20;14.65;;;8.20;99.90;;;;;;5022538;28;20037;-69
2022/02/03 11:19:48;;;;;;;20.40;14.85;;;8.20;99.90;;;;;;5018294;28;20060;-69
2022/02/03 11:22:21;;;;;;;16.90;13.55;;;8.20;99.90;;;;;;5018138;28;20041;-69
2022/02/03 11:24:56;;;;;;;14.55;12.40;;;8.20;99.90;;;;;;5025177;28;20104;-70
2022/02/03 11:27:35;;;;;;;13.77;11.52;;;8.10;99.90;;;;;;5018099;28;20071;-70
2022/02/03 11:30:58;;;;;;;12.70;11.05;;;8.10;99.90;;;;;;5022320;28;20122;-70
2022/02/03 11:38:55;;;;;;;13.35;11.65;;;7.90;99.90;;;;;;5021301;28;20037;-69
2022/02/03 11:58:09;;;;;;;13.57;11.38;;;8.00;99.90;;;;;;5025396;28;20041;-69
2022/02/03 12:00:59;;;;;;;14.13;12.25;;;8.00;99.90;;;;;;5021715;28;20049;-69
2022/02/03 12:18:14;;;;;;;10.70;9.60;;;8.10;99.90;;;;;;5022664;28;20045;-69
2022/02/03 12:26:21;;;;;;;10.40;9.30;;;7.90;99.90;;;;;;5020524;28;20042;-70
2022/02/03 12:29:07;;;;;;;12.55;10.52;;;8.00;99.90;;;;;;5019400;28;20053;-70
2022/02/03 12:40:24;;;;;;;11.90;10.23;;;7.80;99.90;;;;;;5019211;28;20111;-70
2022/02/03 12:42:54;;;;;;;12.45;11.13;;;7.80;99.90;;;;;;5022263;28;20421;-70
2022/02/03 12:45:27;;;;;;;12.50;11.20;;;7.80;99.90;;;;;;5003249;28;20052;-70
2022/02/03 12:47:59;;;;;;;12.95;10.85;;;7.80;99.90;;;;;;5021763;28;20069;-70
2022/02/03 12:50:28;;;;;;;12.75;10.57;;;7.80;99.90;;;;;;5025324;28;20110;-70
2022/02/03 12:52:57;;;;;;;12.25;10.40;;;7.80;99.90;;;;;;5018591;28;20060;-70
2022/02/03 12:55:33;;;;;;;11.68;10.13;;;7.70;99.90;;;;;;5016091;28;20041;-70
2022/02/03 12:58:02;;;;;;;12.13;10.40;;;7.70;99.90;;;;;;5005418;28;20053;-69
2022/02/03 13:00:38;;;;;;;11.85;9.80;;;7.70;99.90;;;;;;5017940;28;20045;-70
2022/02/03 13:03:04;;;;;;;11.55;9.50;;;7.70;99.90;;;;;;5017572;28;20576;-70
2022/02/03 13:05:35;;;;;;;12.45;10.05;;;7.70;99.90;;;;;;5026402;28;20052;-70
2022/02/03 13:08:04;;;;;;;11.70;10.02;;;7.70;99.90;;;;;;5018510;28;20107;-70
2022/02/03 13:10:33;;;;;;;10.98;9.88;;;7.70;99.90;;;;;;5019734;28;20144;-70
2022/02/03 13:13:24;;;;;;;11.05;9.82;;;7.80;99.90;;;;;;5018903;28;20065;-70
2022/02/03 13:15:50;;;;;;;13.23;10.10;;;7.70;99.90;;;;;;5021915;28;20426;-70
2022/02/03 13:18:26;;;;;;;12.07;9.55;;;7.70;99.90;;;;;;5023539;28;20041;-70
2022/02/03 13:21:17;;;;;;;11.00;9.60;;;7.70;99.90;;;;;;5022971;28;20605;-70
2022/02/03 13:23:50;;;;;;;11.98;8.73;;;7.70;99.90;;;;;;5020500;28;21422;-68
2022/02/03 13:26:20;;;;;;;10.77;8.98;;;7.70;99.90;;;;;;5002675;28;20155;-68
2022/02/03 13:29:01;;;;;;;10.68;9.57;;;7.70;99.90;;;;;;5020956;28;20045;-68
2022/02/03 13:31:44;;;;;;;9.85;8.93;;;7.70;99.90;;;;;;5014970;28;20049;-69
2022/02/03 13:34:26;;;;;;;12.88;9.82;;;7.70;99.90;;;;;;5002323;28;20046;-69
2022/02/03 13:36:59;;;;;;;10.35;9.20;;;7.70;99.90;;;;;;5016079;28;20053;-69
2022/02/03 13:39:29;;;;;;;10.27;9.15;;;7.70;99.90;;;;;;5019856;28;20080;-69
2022/02/03 13:42:13;;;;;;;12.18;9.27;;;7.80;99.90;;;;;;5020677;28;20061;-69
2022/02/03 13:44:40;;;;;;;11.23;10.00;;;7.80;99.90;;;;;;5022440;28;20153;-69
2022/02/03 13:47:27;;;;;;;11.45;9.52;;;7.80;99.90;;;;;;5015579;28;20183;-69
2022/02/03 13:50:10;;;;;;;11.50;10.30;;;7.80;99.90;;;;;;5015094;28;20073;-70
2022/02/03 14:22:11;;;;;;;9.40;8.43;;;7.70;99.90;;;;;;5020016;28;20111;-70
2022/02/03 14:27:27;;;;;;;10.65;8.93;;;7.70;99.90;;;;;;5020722;28;20049;-69
2022/02/03 14:30:13;;;;;;;10.95;8.80;;;7.70;99.90;;;;;;5018732;28;20053;-69
2022/02/03 14:32:41;;;;;;;9.38;8.15;;;7.70;99.90;;;;;;5015893;28;20121;-69
2022/02/03 14:35:10;;;;;;;12.70;9.48;;;7.70;99.90;;;;;;5021877;28;20478;-69
2022/02/03 14:42:35;;;;;;;10.43;9.07;;;7.70;99.90;;;;;;5018639;28;20045;-69
2022/02/03 14:45:01;;;;;;;11.38;10.07;;;7.70;99.90;;;;;;5033927;28;20065;-68
2022/02/03 14:47:29;;;;;;;12.35;11.07;;;7.70;99.90;;;;;;5013786;28;20132;-68
2022/02/03 14:49:59;;;;;;;13.68;11.38;;;7.70;99.90;;;;;;5018481;28;20053;-68
2022/02/03 14:52:29;;;;;;;13.70;11.38;;;7.60;99.90;;;;;;5016326;28;20075;-68
2022/02/03 15:00:27;;;;;;;16.23;12.52;;;7.60;99.90;;;;;;5026161;28;20373;-69
2022/02/03 15:02:53;;;;;;;17.63;13.00;;;7.60;99.90;;;;;;5026404;28;20064;-69
2022/02/03 15:05:27;;;;;;;14.40;12.82;;;7.70;99.90;;;;;;5024843;28;20515;-69
2022/02/03 15:07:59;;;;;;;;;;;7.70;99.90;;;;;;5022113;28;20080;-69
2022/02/03 15:13:00;;;;;;;17.73;14.32;;;7.70;99.90;;;;;;5018831;28;20096;-69
2022/02/03 15:15:26;;;;;;;19.88;15.27;;;7.70;99.90;;;;;;5018987;28;20129;-69
2022/02/03 15:17:52;;;;;;;15.95;13.40;;;7.60;99.90;;;;;;5020196;28;20526;-69
2022/02/03 15:20:17;;;;;;;17.45;13.93;;;7.60;99.90;;;;;;5019846;28;20046;-69
2022/02/03 15:22:43;;;;;;;18.73;13.77;;;7.60;99.90;;;;;;5026220;28;20037;-69
2022/02/03 15:25:11;;;;;;;14.43;12.30;;;7.60;99.90;;;;;;5017927;28;20045;-69
2022/02/03 15:27:38;;;;;;;16.25;13.10;;;7.60;99.90;;;;;;5025897;28;20057;-69
2022/02/03 15:30:04;;;;;;;16.88;12.43;;;7.60;99.90;;;;;;5026901;28;20085;-69
2022/02/03 15:32:37;;;;;;;16.10;11.70;;;7.50;99.90;;;;;;5008820;28;20037;-69
2022/02/03 15:35:09;;;;;;;14.23;11.60;;;7.50;99.90;;;;;;5020608;28;20068;-69
2022/02/03 15:37:36;;;;;;;15.82;12.40;;;7.50;99.90;;;;;;5024955;28;20037;-69
2022/02/03 15:40:09;;;;;;;16.30;13.02;;;7.50;99.90;;;;;;5022099;28;20496;-69
2022/02/03 15:42:39;;;;;;;16.83;13.35;;;7.40;99.90;;;;;;5026135;28;20045;-69
2022/02/03 15:45:06;;;;;;;21.52;13.45;;;7.40;99.90;;;;;;5024923;28;20088;-69
2022/02/03 15:47:41;;;;;;;17.15;13.48;;;7.40;99.90;;;;;;5018906;28;20079;-69
2022/02/03 16:17:28;;;;;;;18.95;13.13;;;7.40;99.90;;;;;;4976761;28;20042;-68
2022/02/03 16:20:04;;;;;;;18.40;13.43;;;7.30;99.90;;;;;;4988389;28;20079;-68
2022/02/03 16:22:45;;;;;;;17.42;13.05;;;7.30;99.90;;;;;;5001837;28;20050;-68
2022/02/03 16:25:29;;;;;;;17.65;14.07;;;7.40;99.90;;;;;;5022033;28;20501;-69
2022/02/03 16:52:45;;;;;;;18.23;14.57;;;7.20;99.90;;;;;;5026021;28;20398;-69
2022/02/03 16:55:15;;;;;;;20.25;16.05;;;7.20;99.90;;;;;;5022636;28;20049;-69
2022/02/03 16:57:41;;;;;;;20.83;17.23;;;7.20;99.90;;;;;;5020153;28;20042;-69
2022/02/03 17:00:11;;;;;;;19.80;14.32;;;7.20;99.90;;;;;;5023017;28;20064;-69
2022/02/03 17:02:38;;;;;;;21.20;14.75;;;7.20;99.90;;;;;;5021947;28;20045;-69
2022/02/03 17:05:05;;;;;;;20.83;16.10;;;7.20;99.90;;;;;;5021843;28;20069;-69
2022/02/03 17:07:30;;;;;;;16.80;13.48;;;7.20;99.90;;;;;;5025182;28;20507;-69
2022/02/03 17:09:57;;;;;;;17.92;15.85;;;7.20;99.90;;;;;;5017984;28;20095;-69
2022/02/03 17:12:23;;;;;;;20.05;16.15;;;7.10;99.90;;;;;;5014709;28;20041;-70
2022/02/03 17:14:49;;;;;;;17.50;15.65;;;7.20;99.90;;;;;;5021551;28;20045;-69
2022/02/03 17:17:16;;;;;;;17.58;15.15;;;7.20;99.90;;;;;;5016700;28;20060;-69
2022/02/03 17:19:42;;;;;;;18.88;15.88;;;7.20;99.90;;;;;;5020382;28;20042;-69
2022/02/03 17:22:10;;;;;;;19.95;16.10;;;7.10;99.90;;;;;;5010589;28;20132;-69
2022/02/03 17:24:40;;;;;;;19.30;15.82;;;7.20;99.90;;;;;;5020144;28;20041;-69
2022/02/03 17:27:21;;;;;;;20.27;15.85;;;7.20;99.90;;;;;;5030266;28;20042;-69
2022/02/03 17:29:59;;;;;;;22.10;15.18;;;7.20;99.90;;;;;;5023112;28;20140;-69
2022/02/03 18:51:00;;;;;;;28.90;19.67;;;7.10;99.90;;;;;;5020018;28;20594;-69
2022/02/03 18:53:41;;;;;;;27.77;20.67;;;7.10;99.90;;;;;;5026088;28;20076;-69
2022/02/03 18:56:27;;;;;;;32.13;22.08;;;7.10;99.90;;;;;;5024369;28;20030;-69
2022/02/03 19:09:34;;;;;;;35.35;23.45;;;7.10;99.90;;;;;;5017892;28;20115;-70
2022/02/03 19:24:02;;;;;;;33.22;25.48;;;7.10;99.90;;;;;;5023405;28;20038;-69
2022/02/03 19:56:40;;;;;;;37.25;25.83;;;7.20;99.90;;;;;;5017497;28;20044;-70
2022/02/03 20:03:05;;;;;;;36.63;26.38;;;7.20;99.90;;;;;;5018819;28;20089;-70
2022/02/03 20:06:20;;;;;;;34.95;24.80;;;7.20;99.90;;;;;;5017532;28;20081;-69
2022/02/03 20:08:33;;;;;;;36.97;26.55;;;7.30;99.90;;;;;;5019255;28;20049;-70
2022/02/03 20:11:04;;;;;;;36.47;25.70;;;7.30;99.90;;;;;;5017135;28;21339;-70
2022/02/03 20:13:29;;;;;;;36.45;25.35;;;7.30;99.90;;;;;;5017979;28;20045;-70
2022/02/03 20:15:55;;;;;;;34.83;27.17;;;7.30;99.90;;;;;;5021506;28;20851;-70
2022/02/03 20:18:22;;;;;;;37.03;26.70;;;7.30;99.90;;;;;;5020255;28;20045;-70
2022/02/03 20:20:48;;;;;;;34.58;25.63;;;7.30;99.90;;;;;;5017358;28;20522;-70
2022/02/03 20:23:17;;;;;;;35.47;25.58;;;7.30;99.90;;;;;;5006161;28;20050;-70
2022/02/03 20:25:50;;;;;;;36.65;25.88;;;7.30;99.90;;;;;;5019499;28;20053;-70
2022/02/03 20:28:16;;;;;;;38.08;26.05;;;7.30;99.90;;;;;;5023293;28;20151;-70
2022/02/03 20:30:41;;;;;;;36.65;26.73;;;7.30;99.90;;;;;;4997904;28;20058;-70
2022/02/03 20:33:07;;;;;;;35.90;26.73;;;7.30;99.90;;;;;;5018198;28;20038;-70
2022/02/03 20:35:34;;;;;;;32.65;25.65;;;7.30;99.90;;;;;;5021767;28;20082;-70
2022/02/03 20:38:00;;;;;;;39.25;26.88;;;7.30;99.90;;;;;;5000799;28;20490;-70
2022/02/03 20:40:25;;;;;;;35.92;26.10;;;7.30;99.90;;;;;;5019817;28;20193;-70
2022/02/03 20:42:51;;;;;;;39.35;26.58;;;7.30;99.90;;;;;;5020725;28;20103;-70
2022/02/03 20:45:17;;;;;;;39.17;26.38;;;7.30;99.90;;;;;;5017307;28;20180;-70
2022/02/03 20:47:42;;;;;;;35.30;26.02;;;7.30;99.90;;;;;;5021488;28;20345;-70
2022/02/03 20:50:13;;;;;;;35.40;26.60;;;7.30;99.90;;;;;;5020832;28;20045;-70
2022/02/03 20:52:39;;;;;;;38.25;26.30;;;7.30;99.90;;;;;;5004007;28;20042;-70
2022/02/03 20:55:05;;;;;;;34.67;26.67;;;7.30;99.90;;;;;;5017805;28;20416;-70
2022/02/03 20:57:31;;;;;;;34.17;26.30;;;7.30;99.90;;;;;;5016428;28;20053;-70
2022/02/03 21:00:15;;;;;;;37.97;26.52;;;7.30;99.90;;;;;;5021419;28;20037;-70
2022/02/03 21:05:16;;;;;;;35.55;24.15;;;7.30;99.90;;;;;;5017660;28;20041;-70
2022/02/03 21:07:44;;;;;;;35.47;24.38;;;7.30;99.90;;;;;;5019696;28;20045;-70
2022/02/03 21:10:14;;;;;;;36.72;24.70;;;7.30;99.90;;;;;;5021380;28;20401;-70
2022/02/03 21:12:40;;;;;;;32.53;24.02;;;7.40;99.90;;;;;;5013743;28;20586;-70
2022/02/03 21:15:08;;;;;;;36.33;24.20;;;7.30;99.90;;;;;;5021613;28;20053;-70
2022/02/03 21:17:34;;;;;;;35.97;25.45;;;7.30;99.90;;;;;;5001153;28;20057;-70
2022/02/03 21:20:11;;;;;;;36.70;26.15;;;7.30;99.90;;;;;;5014855;28;20049;-70
2022/02/03 21:22:38;;;;;;;35.92;26.88;;;7.30;99.90;;;;;;5004834;28;20141;-69
2022/02/03 21:27:47;;;;;;;38.25;28.65;;;7.30;99.90;;;;;;5017087;28;20045;-69
2022/02/03 21:30:16;;;;;;;41.15;28.95;;;7.30;99.90;;;;;;5017763;28;20064;-69
2022/02/03 21:32:42;;;;;;;38.95;28.17;;;7.30;99.90;;;;;;5018792;28;20485;-69
2022/02/03 21:35:09;;;;;;;40.80;30.10;;;7.30;99.90;;;;;;5018585;28;20117;-69
2022/02/03 21:37:35;;;;;;;38.28;29.88;;;7.30;99.90;;;;;;5018478;28;20033;-69
2022/02/03 21:40:02;;;;;;;39.67;30.35;;;7.20;99.90;;;;;;5014191;28;20041;-69
2022/02/03 21:42:27;;;;;;;36.80;28.95;;;7.30;99.90;;;;;;5003123;28;20121;-69
2022/02/03 21:44:53;;;;;;;42.22;30.02;;;7.30;99.90;;;;;;5018042;28;20116;-69
2022/02/03 21:47:19;;;;;;;41.83;29.67;;;7.30;99.90;;;;;;5003188;28;20053;-69
2022/02/03 21:49:45;;;;;;;36.90;28.83;;;7.30;99.90;;;;;;5018249;28;20466;-69
2022/02/03 21:52:18;;;;;;;39.25;29.98;;;7.30;99.90;;;;;;5014390;28;20042;-69
2022/02/03 21:54:45;;;;;;;38.70;29.53;;;7.20;99.90;;;;;;5018156;28;20375;-69
2022/02/03 21:57:11;;;;;;;41.28;30.58;;;7.20;99.90;;;;;;5019167;28;20128;-69
2022/02/03 21:59:37;;;;;;;38.53;29.83;;;7.20;99.90;;;;;;5018661;28;20159;-69
2022/02/03 22:02:06;;;;;;;40.97;29.92;;;7.10;99.90;;;;;;5021300;28;20049;-69
2022/02/03 22:04:32;;;;;;;37.45;28.35;;;7.20;99.90;;;;;;5023469;28;20049;-69
2022/02/03 22:06:58;;;;;;;36.47;28.20;;;7.20;99.90;;;;;;5021947;28;20066;-69
2022/02/03 22:09:24;;;;;;;37.47;28.42;;;7.20;99.90;;;;;;5029251;28;20052;-69
2022/02/03 22:11:50;;;;;;;38.38;29.92;;;7.10;99.90;;;;;;5012027;28;20050;-69
2022/02/03 22:14:15;;;;;;;39.10;30.10;;;7.10;99.90;;;;;;5029232;28;20067;-70
2022/02/03 22:16:41;;;;;;;38.65;30.20;;;7.10;99.90;;;;;;5026869;28;20045;-70
2022/02/03 22:19:07;;;;;;;36.35;27.35;;;7.10;99.90;;;;;;5009418;28;20518;-69
2022/02/03 22:24:29;;;;;;;34.22;28.63;;;7.10;99.90;;;;;;5019163;28;20059;-70
2022/02/03 22:27:12;;;;;;;36.60;29.10;;;7.00;99.90;;;;;;5020403;28;20041;-70
2022/02/03 22:45:24;;;;;;;37.08;27.80;;;7.00;99.90;;;;;;5021695;28;20084;-70
2022/02/03 22:50:17;;;;;;;36.40;29.05;;;7.00;99.90;;;;;;5024278;28;20508;-70
2022/02/03 22:52:42;;;;;;;38.88;28.02;;;7.00;99.90;;;;;;5023387;28;20045;-70
2022/02/03 22:55:13;;;;;;;38.85;28.30;;;6.90;99.90;;;;;;5021507;28;20035;-70
2022/02/03 22:57:43;;;;;;;38.38;28.88;;;6.90;99.90;;;;;;5020169;28;20124;-70
2022/02/03 23:00:16;;;;;;;31.88;25.35;;;6.80;99.90;;;;;;5022267;28;20208;-70
2022/02/03 23:02:42;;;;;;;32.45;27.15;;;6.80;99.90;;;;;;5019283;28;20057;-70
2022/02/03 23:05:10;;;;;;;35.78;26.65;;;6.80;99.90;;;;;;5021417;28;20454;-70
2022/02/03 23:10:17;;;;;;;37.33;26.02;;;6.70;99.90;;;;;;5020449;28;20077;-70
2022/02/03 23:12:54;;;;;;;35.08;26.63;;;6.70;99.90;;;;;;5022867;28;20481;-70
2022/02/03 23:17:56;;;;;;;36.10;26.05;;;6.60;99.90;;;;;;5023709;28;20407;-70
2022/02/03 23:20:26;;;;;;;40.15;27.25;;;6.60;99.90;;;;;;5017582;28;20270;-70
2022/02/03 23:22:52;;;;;;;34.33;26.20;;;6.70;99.90;;;;;;5022907;28;20060;-70
2022/02/03 23:25:20;;;;;;;35.78;25.00;;;6.70;99.90;;;;;;5021782;28;20517;-70
2022/02/03 23:30:23;;;;;;;36.05;25.90;;;6.80;99.90;;;;;;5021200;28;20135;-70
2022/02/03 23:32:54;;;;;;;34.17;25.77;;;6.80;99.90;;;;;;5022052;28;20041;-70
2022/02/03 23:35:30;;;;;;;35.45;25.92;;;6.80;99.90;;;;;;5018433;28;20046;-70
